createdAt,value
2019-01-15T00:00:27.624Z,2.57
2019-01-15T00:02:56.652Z,2.42
2019-01-15T00:05:25.584Z,2.47
2019-01-15T00:07:54.576Z,2.55
2019-01-15T00:10:23.452Z,2.59
2019-01-15T00:12:52.404Z,2.60
2019-01-15T00:15:21.434Z,2.60
2019-01-15T00:17:51.315Z,2.62
2019-01-15T00:20:20.241Z,2.68
2019-01-15T00:22:49.184Z,2.62
2019-01-15T00:25:18.125Z,3.03
2019-01-15T00:27:47.047Z,3.22
2019-01-15T00:30:16.755Z,3.05
2019-01-15T00:32:45.660Z,2.98
2019-01-15T00:35:14.664Z,2.79
2019-01-15T00:37:43.611Z,2.93
2019-01-15T00:40:14.460Z,2.89
2019-01-15T00:42:43.368Z,2.92
2019-01-15T00:45:14.806Z,2.91
2019-01-15T00:47:41.254Z,2.93
2019-01-15T00:50:11.755Z,2.90
2019-01-15T00:52:40.634Z,3.03
2019-01-15T00:55:10.373Z,3.15
2019-01-15T00:57:40.958Z,3.14
2019-01-15T01:00:14.589Z,3.18
2019-01-15T01:02:43.503Z,3.19
2019-01-15T01:05:12.385Z,3.21
2019-01-15T01:07:41.289Z,3.23
2019-01-15T01:10:13.157Z,3.25
2019-01-15T01:12:42.097Z,3.29
2019-01-15T01:15:12.250Z,3.35
2019-01-15T01:17:41.236Z,3.76
2019-01-15T01:20:11.585Z,3.50
2019-01-15T01:22:40.514Z,3.46
2019-01-15T01:25:10.698Z,3.53
2019-01-15T01:27:39.767Z,3.47
2019-01-15T01:30:12.640Z,3.48
2019-01-15T01:32:41.621Z,3.48
2019-01-15T01:35:10.646Z,3.48
2019-01-15T01:37:39.546Z,3.88
2019-01-15T01:40:10.857Z,3.44
2019-01-15T01:42:39.906Z,3.47
2019-01-15T01:45:10.082Z,3.89
2019-01-15T01:47:39.049Z,3.62
2019-01-15T01:50:08.713Z,3.72
2019-01-15T01:52:37.669Z,4.06
2019-01-15T01:55:07.533Z,3.79
2019-01-15T01:57:36.476Z,3.77
2019-01-15T02:00:09.202Z,3.76
2019-01-15T02:02:36.787Z,3.78
2019-01-15T02:05:06.051Z,4.15
2019-01-15T02:07:34.936Z,4.27
2019-01-15T02:10:03.990Z,4.37
2019-01-15T02:12:36.774Z,3.97
2019-01-15T02:15:01.882Z,3.88
2019-01-15T02:17:30.829Z,3.81
2019-01-15T02:19:59.864Z,3.78
2019-01-15T02:22:28.715Z,3.74
2019-01-15T02:24:57.592Z,3.57
2019-01-15T02:27:26.537Z,3.45
2019-01-15T02:29:55.431Z,3.46
2019-01-15T02:32:24.479Z,3.46
2019-01-15T02:34:53.332Z,3.86
2019-01-15T02:37:22.299Z,3.68
2019-01-15T02:39:51.180Z,3.54
2019-01-15T02:42:20.108Z,3.54
2019-01-15T02:44:48.992Z,3.57
2019-01-15T02:47:18.022Z,3.54
2019-01-15T02:49:46.934Z,3.83
2019-01-15T02:52:15.794Z,3.67
2019-01-15T02:54:47.388Z,3.50
2019-01-15T02:57:16.289Z,3.49
2019-01-15T02:59:45.185Z,3.56
2019-01-15T03:02:14.128Z,3.53
2019-01-15T03:04:43.004Z,3.41
2019-01-15T03:07:11.922Z,3.46
2019-01-15T03:09:40.826Z,3.45
2019-01-15T03:12:09.820Z,3.36
2019-01-15T03:14:38.678Z,3.32
2019-01-15T03:17:07.614Z,3.32
2019-01-15T03:19:36.562Z,3.34
2019-01-15T03:22:05.509Z,3.21
2019-01-15T03:24:34.392Z,3.32
2019-01-15T03:27:03.288Z,3.29
2019-01-15T03:29:32.226Z,3.30
2019-01-15T03:32:01.238Z,3.40
2019-01-15T03:34:30.055Z,3.38
2019-01-15T03:36:59.009Z,3.70
2019-01-15T03:39:27.967Z,3.61
2019-01-15T03:41:56.878Z,3.59
2019-01-15T03:44:25.806Z,3.59
2019-01-15T03:46:57.231Z,3.65
2019-01-15T03:49:26.185Z,3.63
2019-01-15T03:51:55.095Z,3.68
2019-01-15T03:54:24.073Z,3.76
2019-01-15T03:56:52.925Z,3.59
2019-01-15T03:59:21.850Z,3.66
2019-01-15T04:01:50.855Z,3.65
2019-01-15T04:04:19.781Z,3.60
2019-01-15T04:06:48.706Z,3.65
2019-01-15T04:09:19.325Z,3.76
2019-01-15T04:11:48.176Z,3.84
2019-01-15T04:14:17.150Z,3.89
2019-01-15T04:16:46.061Z,3.95
2019-01-15T04:19:14.954Z,4.00
2019-01-15T04:21:43.865Z,4.01
2019-01-15T04:24:12.894Z,3.99
2019-01-15T04:26:41.774Z,4.04
2019-01-15T04:29:10.744Z,4.12
2019-01-15T04:31:39.586Z,4.07
2019-01-15T04:34:08.527Z,4.40
2019-01-15T04:36:37.470Z,4.26
2019-01-15T04:39:07.792Z,4.29
2019-01-15T04:41:36.702Z,4.29
2019-01-15T04:44:05.625Z,4.38
2019-01-15T04:46:34.561Z,4.36
2019-01-15T04:49:03.525Z,4.41
2019-01-15T04:51:32.430Z,4.31
2019-01-15T04:54:01.268Z,4.35
2019-01-15T04:56:30.277Z,4.30
2019-01-15T04:58:59.118Z,4.34
2019-01-15T05:01:29.607Z,4.74
2019-01-15T05:03:58.540Z,4.59
2019-01-15T05:06:27.468Z,4.52
2019-01-15T05:08:56.423Z,4.43
2019-01-15T05:11:25.344Z,4.41
2019-01-15T05:13:56.929Z,4.41
2019-01-15T05:16:25.874Z,4.24
2019-01-15T05:18:54.761Z,4.23
2019-01-15T05:21:23.673Z,4.59
2019-01-15T05:23:52.680Z,4.41
2019-01-15T05:26:21.639Z,4.32
2019-01-15T05:28:50.663Z,4.27
2019-01-15T05:31:19.585Z,4.35
2019-01-15T05:33:48.483Z,4.44
2019-01-15T05:36:17.405Z,4.48
2019-01-15T05:38:46.333Z,4.53
2019-01-15T05:41:15.253Z,4.59
2019-01-15T05:43:44.221Z,4.60
2019-01-15T05:46:13.164Z,4.73
2019-01-15T05:48:42.147Z,4.76
2019-01-15T05:51:23.494Z,4.85
2019-01-15T05:53:52.414Z,4.89
2019-01-15T05:56:23.992Z,4.87
2019-01-15T05:58:52.969Z,4.96
2019-01-15T06:01:21.799Z,5.06
2019-01-15T06:03:50.725Z,5.06
2019-01-15T06:06:19.676Z,5.10
2019-01-15T06:08:48.599Z,5.20
2019-01-15T06:11:17.508Z,5.25
2019-01-15T06:13:46.427Z,5.20
2019-01-15T06:16:15.355Z,5.27
2019-01-15T06:18:44.294Z,5.31
2019-01-15T06:21:13.345Z,5.35
2019-01-15T06:23:42.348Z,5.31
2019-01-15T06:26:13.804Z,5.35
2019-01-15T06:28:40.378Z,5.40
2019-01-15T06:31:09.340Z,5.78
2019-01-15T06:33:38.380Z,5.58
2019-01-15T06:36:07.424Z,5.61
2019-01-15T06:38:36.510Z,5.67
2019-01-15T06:41:05.361Z,5.66
2019-01-15T06:43:37.041Z,5.80
2019-01-15T06:46:05.995Z,5.84
2019-01-15T06:48:34.913Z,5.80
2019-01-15T06:51:03.842Z,5.68
2019-01-15T06:53:32.774Z,5.80
2019-01-15T06:56:01.726Z,5.67
2019-01-15T06:58:30.685Z,5.83
2019-01-15T07:00:59.691Z,5.81
2019-01-15T07:03:28.594Z,5.75
2019-01-15T07:05:57.564Z,5.70
2019-01-15T07:08:26.466Z,5.79
2019-01-15T07:10:55.442Z,5.79
2019-01-15T07:13:24.467Z,5.84
2019-01-15T07:15:53.534Z,5.77
2019-01-15T07:18:22.562Z,5.82
2019-01-15T07:20:53.633Z,5.82
2019-01-15T07:23:24.938Z,5.89
2019-01-15T07:25:51.621Z,6.15
2019-01-15T07:28:20.664Z,5.91
2019-01-15T07:30:52.144Z,6.29
2019-01-15T07:33:24.091Z,6.11
2019-01-15T07:35:53.254Z,6.10
2019-01-15T07:38:22.238Z,6.11
2019-01-15T07:40:51.335Z,6.04
2019-01-15T07:43:20.413Z,6.02
2019-01-15T07:45:49.482Z,6.01
2019-01-15T07:48:18.514Z,6.29
2019-01-15T07:50:47.340Z,6.14
2019-01-15T07:53:16.331Z,6.10
2019-01-15T07:55:45.288Z,6.03
2019-01-15T07:58:14.382Z,6.03
2019-01-15T08:00:43.347Z,6.06
2019-01-15T08:03:12.225Z,5.98
2019-01-15T08:05:41.206Z,6.11
2019-01-15T08:08:10.235Z,6.09
2019-01-15T08:10:39.280Z,6.07
2019-01-15T08:13:08.393Z,6.21
2019-01-15T08:15:37.355Z,6.15
2019-01-15T08:18:06.406Z,6.51
2019-01-15T08:20:35.347Z,6.27
2019-01-15T08:23:04.326Z,6.39
2019-01-15T08:25:33.341Z,6.37
2019-01-15T08:28:02.266Z,6.41
2019-01-15T08:30:33.683Z,6.43
2019-01-15T08:33:02.679Z,6.45
2019-01-15T08:35:31.631Z,6.47
2019-01-15T08:38:00.595Z,6.65
2019-01-15T08:40:29.584Z,7.04
2019-01-15T08:43:12.375Z,6.84
2019-01-15T08:45:49.431Z,6.90
2019-01-15T08:48:20.630Z,6.85
2019-01-15T08:50:53.254Z,6.93
2019-01-15T08:53:30.697Z,7.21
2019-01-15T08:56:02.535Z,7.06
2019-01-15T08:58:40.474Z,6.98
2019-01-15T09:01:30.050Z,6.94
2019-01-15T09:04:05.345Z,6.97
2019-01-15T09:06:42.602Z,7.02
2019-01-15T09:09:42.781Z,6.97
2019-01-15T09:12:16.337Z,7.37
2019-01-15T09:14:51.071Z,7.23
2019-01-15T09:17:24.103Z,7.16
2019-01-15T09:20:06.900Z,7.23
2019-01-15T09:22:34.135Z,7.28
2019-01-15T09:25:06.420Z,7.31
2019-01-15T09:28:53.010Z,7.15
2019-01-15T09:31:20.138Z,7.34
2019-01-15T09:33:50.875Z,7.34
2019-01-15T09:36:20.990Z,7.26
2019-01-15T09:39:01.926Z,7.48
2019-01-15T09:41:41.546Z,7.48
2019-01-15T09:44:13.808Z,7.40
2019-01-15T09:46:46.646Z,7.51
2019-01-15T09:49:26.543Z,7.46
2019-01-15T09:52:00.345Z,7.52
2019-01-15T09:54:35.386Z,7.51
2019-01-15T09:57:23.729Z,7.57
2019-01-15T09:59:55.103Z,7.60
2019-01-15T10:02:35.646Z,7.51
2019-01-15T10:05:08.695Z,7.50
2019-01-15T10:07:48.541Z,7.56
2019-01-15T10:10:24.087Z,7.67
2019-01-15T10:13:01.293Z,7.60
2019-01-15T10:15:47.820Z,7.70
2019-01-15T10:18:23.394Z,7.82
2019-01-15T10:21:00.420Z,7.72
2019-01-15T10:23:26.544Z,7.72
2019-01-15T10:25:56.395Z,7.80
2019-01-15T10:28:31.151Z,8.02
2019-01-15T10:31:41.106Z,7.97
2019-01-15T10:34:27.690Z,8.43
2019-01-15T10:36:58.099Z,8.28
2019-01-15T10:39:27.764Z,8.03
2019-01-15T10:42:01.585Z,8.08
2019-01-15T10:44:32.166Z,8.23
2019-01-15T10:47:30.481Z,8.19
2019-01-15T10:50:02.088Z,8.15
2019-01-15T10:52:39.143Z,8.19
2019-01-15T10:55:11.346Z,8.21
2019-01-15T10:57:54.571Z,8.07
2019-01-15T11:00:26.479Z,8.09
2019-01-15T11:03:05.558Z,7.99
2019-01-15T11:05:42.897Z,8.17
2019-01-15T11:08:24.992Z,8.13
2019-01-15T11:11:04.457Z,8.09
2019-01-15T11:13:36.329Z,7.95
2019-01-15T11:16:10.108Z,8.04
2019-01-15T11:18:46.493Z,8.35
2019-01-15T11:21:46.530Z,8.22
2019-01-15T11:24:22.554Z,8.22
2019-01-15T11:26:58.085Z,8.16
2019-01-15T11:29:33.658Z,8.23
2019-01-15T11:32:05.525Z,8.24
2019-01-15T11:34:36.633Z,8.21
2019-01-15T11:37:14.516Z,8.50
2019-01-15T11:39:52.392Z,8.40
2019-01-15T11:42:26.335Z,8.44
2019-01-15T11:45:03.598Z,8.32
2019-01-15T11:47:35.944Z,8.36
2019-01-15T11:50:14.244Z,8.29
2019-01-15T11:52:43.866Z,8.29
2019-01-15T11:55:16.247Z,8.42
2019-01-15T11:57:53.111Z,8.41
2019-01-15T12:00:35.819Z,8.40
2019-01-15T12:03:27.013Z,8.27
2019-01-15T12:06:21.494Z,8.60
2019-01-15T12:09:25.769Z,8.36
2019-01-15T12:12:37.258Z,8.28
2019-01-15T12:15:26.261Z,8.20
2019-01-15T12:18:15.769Z,8.36
2019-01-15T12:21:15.426Z,8.28
2019-01-15T12:24:21.579Z,8.19
2019-01-15T12:27:22.104Z,8.36
2019-01-15T12:30:31.554Z,8.36
2019-01-15T12:33:31.146Z,8.24
2019-01-15T12:36:21.444Z,8.30
2019-01-15T12:39:11.642Z,8.27
2019-01-15T12:42:12.546Z,8.17
2019-01-15T12:45:18.054Z,8.16
2019-01-15T12:48:37.844Z,8.36
2019-01-15T12:51:30.830Z,8.35
2019-01-15T12:54:37.059Z,8.69
2019-01-15T12:57:21.524Z,8.47
2019-01-15T13:00:12.657Z,8.72
2019-01-15T13:03:10.493Z,8.52
2019-01-15T13:06:03.410Z,8.17
2019-01-15T13:08:54.392Z,8.41
2019-01-15T13:11:56.498Z,8.30
2019-01-15T13:14:43.313Z,8.21
2019-01-15T13:17:38.064Z,8.38
2019-01-15T13:20:32.440Z,8.24
2019-01-15T13:23:20.728Z,8.31
2019-01-15T13:26:27.070Z,8.40
2019-01-15T13:29:19.893Z,8.22
2019-01-15T13:32:13.583Z,8.28
2019-01-15T13:35:07.082Z,8.33
2019-01-15T13:37:52.140Z,8.35
2019-01-15T13:40:50.616Z,8.37
2019-01-15T13:43:50.444Z,8.63
2019-01-15T13:46:57.596Z,8.48
2019-01-15T13:49:51.666Z,8.56
2019-01-15T13:52:35.996Z,8.66
2019-01-15T13:55:31.101Z,8.69
2019-01-15T13:58:17.630Z,8.71
2019-01-15T14:01:17.349Z,8.74
2019-01-15T14:04:08.969Z,8.77
2019-01-15T14:06:57.805Z,8.70
2019-01-15T14:10:08.623Z,8.71
2019-01-15T14:12:43.505Z,9.09
2019-01-15T14:15:33.699Z,8.79
2019-01-15T14:18:27.555Z,8.83
2019-01-15T14:21:17.437Z,8.76
2019-01-15T14:24:00.599Z,8.74
2019-01-15T14:26:52.439Z,8.76
2019-01-15T14:29:52.098Z,8.56
2019-01-15T14:32:31.555Z,8.65
2019-01-15T14:35:23.154Z,8.73
2019-01-15T14:38:21.455Z,8.65
2019-01-15T14:41:09.913Z,8.58
2019-01-15T14:44:32.788Z,8.96
2019-01-15T14:47:34.709Z,8.63
2019-01-15T14:50:30.254Z,8.62
2019-01-15T14:53:27.315Z,8.62
2019-01-15T14:56:31.984Z,8.67
2019-01-15T14:59:26.071Z,8.52
2019-01-15T15:02:20.246Z,8.67
2019-01-15T15:05:27.478Z,8.60
2019-01-15T15:08:28.132Z,8.43
2019-01-15T15:11:25.605Z,8.35
2019-01-15T15:14:21.378Z,8.45
2019-01-15T15:17:19.520Z,8.53
2019-01-15T15:20:08.569Z,8.38
2019-01-15T15:23:02.832Z,8.42
2019-01-15T15:26:03.376Z,8.49
2019-01-15T15:29:02.459Z,8.42
2019-01-15T15:32:09.058Z,8.46
2019-01-15T15:35:03.743Z,8.46
2019-01-15T15:37:52.244Z,8.24
2019-01-15T15:40:42.635Z,8.29
2019-01-15T15:43:35.790Z,8.37
2019-01-15T15:46:28.876Z,8.38
2019-01-15T15:49:22.140Z,8.38
2019-01-15T15:52:11.487Z,8.40
2019-01-15T15:55:20.808Z,8.45
2019-01-15T15:58:11.956Z,8.39
2019-01-15T16:00:54.715Z,8.38
2019-01-15T16:03:39.350Z,8.35
2019-01-15T16:06:45.761Z,8.36
2019-01-15T16:09:37.657Z,8.66
2019-01-15T16:12:37.848Z,8.53
2019-01-15T16:15:27.903Z,8.46
2019-01-15T16:18:14.159Z,8.52
2019-01-15T16:21:00.560Z,8.56
2019-01-15T16:23:49.329Z,8.46
2019-01-15T16:26:35.866Z,8.79
2019-01-15T16:29:16.501Z,8.53
2019-01-15T16:32:12.401Z,8.45
2019-01-15T16:34:54.365Z,8.47
2019-01-15T16:37:33.243Z,8.31
2019-01-15T16:40:27.153Z,8.48
2019-01-15T16:43:24.196Z,8.46
2019-01-15T16:46:26.481Z,8.40
2019-01-15T16:49:12.346Z,8.41
2019-01-15T16:52:07.296Z,8.43
2019-01-15T16:54:53.200Z,8.47
2019-01-15T16:57:42.072Z,8.39
2019-01-15T17:00:36.672Z,8.44
2019-01-15T17:03:36.978Z,8.47
2019-01-15T17:06:16.956Z,8.42
2019-01-15T17:09:03.782Z,8.42
2019-01-15T17:11:48.499Z,8.40
2019-01-15T17:14:40.901Z,8.28
2019-01-15T17:17:37.067Z,8.33
2019-01-15T17:20:41.377Z,8.46
2019-01-15T17:23:24.487Z,8.32
2019-01-15T17:26:11.252Z,8.36
2019-01-15T17:29:02.031Z,8.39
2019-01-15T17:31:50.232Z,8.40
2019-01-15T17:34:43.860Z,8.37
2019-01-15T17:37:27.627Z,8.46
2019-01-15T17:40:17.396Z,8.42
2019-01-15T17:43:14.426Z,8.41
2019-01-15T17:45:54.960Z,8.41
2019-01-15T17:48:45.684Z,8.42
2019-01-15T17:51:23.856Z,8.34
2019-01-15T17:54:23.864Z,8.41
2019-01-15T17:57:10.497Z,8.21
2019-01-15T17:59:59.548Z,8.32
2019-01-15T18:05:50.394Z,8.41
2019-01-15T18:08:47.250Z,8.41
2019-01-15T18:11:37.991Z,8.32
2019-01-15T18:14:44.272Z,8.35
2019-01-15T18:17:40.989Z,8.38
2019-01-15T18:20:23.265Z,8.47
2019-01-15T18:23:14.105Z,8.42
2019-01-15T18:25:58.340Z,8.40
2019-01-15T18:28:49.087Z,8.41
2019-01-15T18:31:57.413Z,8.37
2019-01-15T18:34:41.787Z,8.21
2019-01-15T18:37:34.562Z,8.25
2019-01-15T18:40:43.846Z,8.33
2019-01-15T18:43:43.878Z,8.23
2019-01-15T18:46:34.036Z,8.27
2019-01-15T18:49:25.606Z,8.33
2019-01-15T18:52:12.776Z,8.37
2019-01-15T18:54:59.280Z,8.23
2019-01-15T18:57:45.971Z,8.36
2019-01-15T19:00:33.105Z,8.33
2019-01-15T19:03:30.808Z,8.35
2019-01-15T19:06:29.053Z,8.25
2019-01-15T19:09:17.193Z,8.23
2019-01-15T19:12:09.247Z,8.25
2019-01-15T19:14:52.441Z,8.38
2019-01-15T19:17:40.248Z,8.28
2019-01-15T19:20:34.406Z,8.34
2019-01-15T19:23:19.885Z,8.30
2019-01-15T19:26:17.950Z,8.34
2019-01-15T19:29:04.556Z,8.36
2019-01-15T19:31:55.345Z,8.37
2019-01-15T19:34:42.216Z,8.32
2019-01-15T19:37:45.031Z,8.26
2019-01-15T19:40:34.280Z,8.43
2019-01-15T19:43:25.210Z,8.37
2019-01-15T19:46:07.856Z,8.38
2019-01-15T19:49:04.333Z,8.38
2019-01-15T19:51:43.803Z,8.46
2019-01-15T19:54:34.603Z,8.43
2019-01-15T19:57:34.616Z,8.75
2019-01-15T20:00:26.503Z,8.92
2019-01-15T20:03:27.922Z,8.60
2019-01-15T20:06:14.235Z,8.56
2019-01-15T20:09:00.909Z,8.57
2019-01-15T20:12:03.563Z,8.50
2019-01-15T20:14:50.091Z,8.54
2019-01-15T20:17:43.993Z,8.48
2019-01-15T20:20:30.682Z,8.46
2019-01-15T20:23:24.934Z,8.49
2019-01-15T20:26:15.745Z,8.53
2019-01-15T20:29:02.640Z,8.58
2019-01-15T20:31:50.792Z,8.61
2019-01-15T20:34:50.765Z,8.65
2019-01-15T20:37:45.100Z,8.58
2019-01-15T20:40:31.679Z,8.50
2019-01-15T20:43:35.386Z,8.70
2019-01-15T20:46:19.003Z,8.65
2019-01-15T20:49:06.222Z,8.67
2019-01-15T20:52:14.566Z,8.62
2019-01-15T20:55:08.979Z,8.65
2019-01-15T20:58:08.931Z,8.56
2019-01-15T21:00:55.681Z,8.63
2019-01-15T21:03:52.677Z,8.55
2019-01-15T21:06:41.001Z,8.49
2019-01-15T21:09:34.856Z,8.59
2019-01-15T21:12:34.900Z,8.55
2019-01-15T21:15:24.900Z,8.60
2019-01-15T21:18:15.701Z,8.60
2019-01-15T21:21:02.357Z,8.56
2019-01-15T21:24:02.398Z,8.46
2019-01-15T21:26:47.619Z,8.54
2019-01-15T21:29:27.077Z,8.46
2019-01-15T21:32:13.853Z,8.76
2019-01-15T21:35:13.967Z,8.98
2019-01-15T21:38:00.869Z,9.06
2019-01-15T21:40:47.486Z,9.20
2019-01-15T21:43:47.610Z,9.27
2019-01-15T21:46:41.576Z,8.95
2019-01-15T21:49:22.581Z,8.88
2019-01-15T21:52:26.388Z,8.73
2019-01-15T21:55:15.347Z,8.99
2019-01-15T21:57:53.059Z,8.76
2019-01-15T22:00:43.894Z,8.48
2019-01-15T22:03:50.245Z,8.47
2019-01-15T22:06:53.534Z,8.52
2019-01-15T22:09:36.444Z,8.45
2019-01-15T22:12:35.222Z,8.41
2019-01-15T22:15:13.881Z,8.44
2019-01-15T22:18:10.577Z,8.37
2019-01-15T22:21:00.169Z,8.37
2019-01-15T22:24:03.019Z,8.35
2019-01-15T22:26:49.566Z,8.29
2019-01-15T22:29:43.374Z,8.42
2019-01-15T22:32:30.259Z,8.37
2019-01-15T22:35:33.353Z,8.44
2019-01-15T22:38:30.490Z,8.75
2019-01-15T22:41:22.866Z,8.84
2019-01-15T22:44:14.359Z,8.63
2019-01-15T22:47:11.208Z,8.58
2019-01-15T22:50:11.644Z,8.50
2019-01-15T22:52:58.356Z,8.44
2019-01-15T22:55:58.672Z,8.37
2019-01-15T22:58:49.614Z,8.43
2019-01-15T23:01:44.383Z,8.43
2019-01-15T23:04:32.446Z,8.39
2019-01-15T23:07:24.035Z,8.37
2019-01-15T23:10:01.340Z,8.36
2019-01-15T23:12:49.256Z,8.27
2019-01-15T23:15:26.869Z,8.62
2019-01-15T23:18:09.260Z,8.43
2019-01-15T23:20:55.629Z,8.33
2019-01-15T23:23:39.429Z,8.33
2019-01-15T23:26:17.089Z,8.31
2019-01-15T23:29:03.747Z,8.32
2019-01-15T23:32:06.714Z,8.28
2019-01-15T23:34:53.116Z,8.40
2019-01-15T23:37:35.707Z,8.39
2019-01-15T23:40:27.069Z,8.63
2019-01-15T23:43:13.845Z,8.51
2019-01-15T23:45:54.725Z,8.31
2019-01-15T23:48:48.458Z,8.28
2019-01-15T23:51:23.617Z,8.43
2019-01-15T23:54:10.156Z,8.33
2019-01-15T23:57:13.419Z,8.27
2019-01-15T23:59:57.060Z,8.20
